Terminal Aerodrome Forecast
Issued by NWS

Home | Current Version | Previous Version | Text Only | Print | Product List | Glossary On
Versions: 1 2 3 4 5 6 7 8 9 10 11 12 13 14 15 16 17 18 19 20 21 22 23 24 25 26 27 28 29 30 31 32 33 34 35 36 37 38 39 40 41 42 43 44
000
FTUS42 KGSP 270137 AAA
TAFHKY
TAF AMD
KHKY 270137Z 2702/2724 00000KT 3SM -RA BKN022 BKN030 OVC035
      TEMPO 2702/2706 6SM BR SCT022 BKN035
     FM270600 00000KT P6SM SCT030 OVC070
     FM271200 31006KT P6SM SCT050 BKN100
     FM271700 31010G18KT P6SM SCT100=

USA.gov is the U.S. government's official web portal to all federal, state and local government web resources and services.